createdAt,value
2018-12-18T00:00:52.584Z,72.29
2018-12-18T00:03:19.014Z,72.41
2018-12-18T00:05:45.290Z,72.27
2018-12-18T00:08:11.676Z,72.33
2018-12-18T00:10:43.816Z,72.08
2018-12-18T00:13:10.104Z,71.68
2018-12-18T00:15:36.303Z,71.50
2018-12-18T00:18:02.730Z,71.61
2018-12-18T00:20:28.880Z,72.52
2018-12-18T00:22:55.037Z,72.54
2018-12-18T00:25:21.382Z,72.49
2018-12-18T00:27:47.512Z,72.61
2018-12-18T00:30:13.706Z,73.41
2018-12-18T00:32:39.865Z,74.33
2018-12-18T00:35:06.120Z,75.28
2018-12-18T00:37:32.289Z,73.98
2018-12-18T00:39:58.433Z,73.90
2018-12-18T00:42:24.585Z,73.75
2018-12-18T00:44:50.794Z,74.14
2018-12-18T00:47:17.022Z,73.28
2018-12-18T00:49:43.164Z,72.82
2018-12-18T00:52:09.510Z,72.32
2018-12-18T00:54:35.737Z,72.89
2018-12-18T00:57:01.906Z,73.96
2018-12-18T00:59:28.161Z,74.17
2018-12-18T01:01:59.348Z,73.45
2018-12-18T01:04:25.563Z,72.89
2018-12-18T01:06:51.791Z,72.49
2018-12-18T01:09:18.019Z,72.65
2018-12-18T01:11:44.188Z,72.08
2018-12-18T01:14:10.678Z,72.06
2018-12-18T01:16:36.817Z,71.90
2018-12-18T01:19:03.135Z,71.79
2018-12-18T01:21:29.539Z,71.08
2018-12-18T01:23:55.765Z,71.18
2018-12-18T01:26:22.024Z,71.85
2018-12-18T01:28:48.192Z,71.22
2018-12-18T01:31:14.446Z,71.97
2018-12-18T01:33:47.600Z,71.28
2018-12-18T01:36:13.750Z,70.81
2018-12-18T01:38:40.094Z,70.47
2018-12-18T01:41:06.261Z,70.36
2018-12-18T01:43:32.582Z,70.70
2018-12-18T01:45:58.810Z,70.69
2018-12-18T01:48:24.989Z,70.82
2018-12-18T01:50:51.267Z,70.47
2018-12-18T01:53:17.499Z,70.42
2018-12-18T01:55:43.666Z,70.57
2018-12-18T01:58:09.949Z,70.50
2018-12-18T02:00:42.990Z,71.28
2018-12-18T02:03:09.179Z,70.75
2018-12-18T02:05:35.358Z,70.65
2018-12-18T02:08:01.585Z,70.50
2018-12-18T02:10:27.814Z,71.51
2018-12-18T02:12:54.041Z,70.77
2018-12-18T02:15:20.270Z,70.47
2018-12-18T02:17:46.505Z,70.84
2018-12-18T02:20:12.827Z,70.36
2018-12-18T02:22:39.044Z,71.86
2018-12-18T02:25:05.269Z,71.61
2018-12-18T02:27:31.441Z,71.92
2018-12-18T02:29:57.582Z,72.11
2018-12-18T02:32:23.903Z,71.92
2018-12-18T02:34:50.126Z,71.63
2018-12-18T02:37:16.295Z,71.44
2018-12-18T02:39:42.473Z,71.44
2018-12-18T02:42:08.614Z,70.59
2018-12-18T02:44:34.757Z,71.96
2018-12-18T02:47:00.929Z,71.39
2018-12-18T02:49:27.071Z,71.19
2018-12-18T02:51:53.314Z,70.68
2018-12-18T02:54:19.535Z,71.82
2018-12-18T02:56:45.676Z,71.55
2018-12-18T02:59:11.957Z,70.77
2018-12-18T03:01:38.190Z,70.51
2018-12-18T03:04:04.419Z,71.06
2018-12-18T03:06:30.649Z,70.96
2018-12-18T03:08:56.826Z,71.23
2018-12-18T03:11:23.130Z,70.72
2018-12-18T03:13:49.268Z,70.66
2018-12-18T03:16:15.585Z,70.77
2018-12-18T03:18:41.721Z,70.97
2018-12-18T03:21:08.043Z,71.30
2018-12-18T03:23:34.213Z,71.04
2018-12-18T03:26:00.351Z,71.41
2018-12-18T03:28:26.899Z,71.29
2018-12-18T03:30:53.159Z,71.28
2018-12-18T03:33:19.301Z,71.34
2018-12-18T03:35:45.614Z,70.90
2018-12-18T03:38:11.840Z,71.16
2018-12-18T03:40:38.039Z,71.59
2018-12-18T03:43:04.206Z,71.85
2018-12-18T03:45:30.373Z,71.47
2018-12-18T03:47:56.501Z,71.72
2018-12-18T03:50:22.644Z,71.07
2018-12-18T03:52:48.813Z,71.34
2018-12-18T03:55:14.970Z,71.33
2018-12-18T03:57:41.458Z,71.62
2018-12-18T04:00:07.702Z,71.36
2018-12-18T04:02:34.117Z,71.25
2018-12-18T04:05:00.550Z,70.92
2018-12-18T04:07:26.724Z,71.04
2018-12-18T04:09:52.974Z,71.11
2018-12-18T04:12:21.301Z,70.26
2018-12-18T04:14:47.473Z,70.52
2018-12-18T04:17:13.707Z,71.36
2018-12-18T04:19:39.965Z,71.66
2018-12-18T04:22:06.163Z,71.35
2018-12-18T04:24:32.302Z,70.97
2018-12-18T04:26:58.416Z,71.04
2018-12-18T04:29:24.672Z,71.08
2018-12-18T04:31:50.844Z,70.27
2018-12-18T04:34:17.099Z,71.21
2018-12-18T04:36:43.299Z,70.75
2018-12-18T04:39:09.583Z,71.16
2018-12-18T04:41:35.811Z,70.78
2018-12-18T04:44:02.052Z,70.87
2018-12-18T04:46:28.443Z,70.00
2018-12-18T04:48:54.702Z,70.43
2018-12-18T04:51:20.878Z,70.26
2018-12-18T04:53:47.122Z,70.28
2018-12-18T04:56:15.248Z,70.23
2018-12-18T04:58:41.422Z,70.37
2018-12-18T05:01:07.681Z,71.36
2018-12-18T05:03:33.860Z,70.80
2018-12-18T05:06:00.106Z,70.41
2018-12-18T05:08:26.337Z,70.08
2018-12-18T05:10:52.572Z,70.29
2018-12-18T05:13:18.999Z,70.68
2018-12-18T05:15:45.132Z,70.50
2018-12-18T05:18:11.292Z,70.80
2018-12-18T05:20:37.486Z,70.00
2018-12-18T05:23:03.637Z,70.76
2018-12-18T05:25:29.777Z,70.77
2018-12-18T05:27:55.964Z,71.04
2018-12-18T05:30:22.148Z,70.69
2018-12-18T05:32:48.273Z,70.71
2018-12-18T05:35:14.481Z,71.26
2018-12-18T05:37:40.600Z,71.24
2018-12-18T05:40:06.740Z,71.24
2018-12-18T05:42:32.934Z,71.89
2018-12-18T05:44:59.069Z,71.90
2018-12-18T05:47:25.197Z,71.57
2018-12-18T05:49:51.349Z,71.54
2018-12-18T05:52:17.489Z,71.49
2018-12-18T05:54:43.644Z,71.40
2018-12-18T05:57:09.856Z,71.45
2018-12-18T05:59:36.129Z,71.65
2018-12-18T06:02:02.316Z,71.55
2018-12-18T06:04:28.584Z,71.94
2018-12-18T06:06:54.728Z,73.07
2018-12-18T06:09:20.897Z,72.76
2018-12-18T06:11:47.234Z,71.47
2018-12-18T06:14:13.365Z,70.67
2018-12-18T06:16:39.719Z,71.44
2018-12-18T06:19:05.917Z,71.62
2018-12-18T06:21:32.121Z,71.98
2018-12-18T06:23:58.253Z,71.43
2018-12-18T06:26:24.421Z,70.60
2018-12-18T06:28:50.655Z,70.79
2018-12-18T06:31:16.881Z,70.13
2018-12-18T06:33:43.056Z,69.84
2018-12-18T06:36:09.188Z,69.45
2018-12-18T06:38:35.362Z,69.63
2018-12-18T06:41:01.545Z,69.00
2018-12-18T06:43:27.815Z,69.55
2018-12-18T06:45:53.962Z,69.69
2018-12-18T06:48:20.118Z,69.01
2018-12-18T06:50:46.277Z,69.06
2018-12-18T06:53:12.413Z,69.05
2018-12-18T06:55:38.569Z,69.01
2018-12-18T06:58:04.760Z,69.09
2018-12-18T07:00:30.910Z,68.97
2018-12-18T07:02:57.202Z,68.67
2018-12-18T07:05:23.402Z,69.00
2018-12-18T07:07:49.586Z,69.49
2018-12-18T07:10:15.754Z,68.95
2018-12-18T07:12:42.105Z,68.28
2018-12-18T07:15:08.265Z,67.59
2018-12-18T07:17:34.422Z,67.71
2018-12-18T07:20:00.589Z,68.91
2018-12-18T07:22:26.814Z,69.24
2018-12-18T07:24:52.966Z,69.77
2018-12-18T07:27:19.300Z,69.32
2018-12-18T07:29:45.468Z,68.06
2018-12-18T07:32:11.637Z,69.20
2018-12-18T07:34:37.785Z,68.77
2018-12-18T07:37:03.973Z,69.42
2018-12-18T07:39:30.183Z,67.19
2018-12-18T07:41:56.429Z,67.26
2018-12-18T07:44:22.583Z,67.48
2018-12-18T07:46:48.773Z,67.48
2018-12-18T07:49:15.113Z,67.20
2018-12-18T07:51:41.374Z,66.06
2018-12-18T07:54:07.573Z,66.13
2018-12-18T07:56:33.797Z,66.49
2018-12-18T07:58:59.941Z,66.67
2018-12-18T08:01:26.256Z,66.72
2018-12-18T08:03:52.385Z,65.24
2018-12-18T08:14:40.487Z,65.97
2018-12-18T08:17:07.593Z,67.14
2018-12-18T08:19:34.666Z,67.16
2018-12-18T08:33:17.689Z,65.88
2018-12-18T08:35:43.846Z,65.64
2018-12-18T08:38:10.113Z,64.73
2018-12-18T08:40:36.307Z,65.03
2018-12-18T08:43:02.455Z,65.39
2018-12-18T08:45:28.612Z,64.81
2018-12-18T08:47:54.773Z,64.08
2018-12-18T08:53:01.049Z,62.60
2018-12-18T08:55:27.197Z,60.78
2018-12-18T08:57:53.484Z,62.33
2018-12-18T09:00:19.714Z,61.94
2018-12-18T09:02:45.860Z,63.31
2018-12-18T09:05:12.167Z,64.67
2018-12-18T09:07:38.333Z,64.94
2018-12-18T09:10:07.252Z,65.88
2018-12-18T09:23:24.261Z,61.76
2018-12-18T09:25:50.571Z,61.85
2018-12-18T09:28:16.815Z,62.48
2018-12-18T09:30:43.010Z,62.35
2018-12-18T09:33:09.150Z,61.91
2018-12-18T09:35:35.475Z,61.65
2018-12-18T09:38:08.085Z,62.17
2018-12-18T09:40:40.426Z,63.05
2018-12-18T09:43:12.806Z,62.77
2018-12-18T09:45:39.027Z,63.11
2018-12-18T09:48:05.172Z,63.00
2018-12-18T09:50:31.512Z,63.92
2018-12-18T09:52:57.740Z,63.43
2018-12-18T09:55:23.934Z,64.18
2018-12-18T09:57:56.308Z,63.44
2018-12-18T10:00:22.450Z,63.43
2018-12-18T10:02:48.581Z,62.14
2018-12-18T10:05:14.788Z,62.15
2018-12-18T10:07:41.048Z,64.11
2018-12-18T10:10:07.220Z,66.16
2018-12-18T10:12:39.502Z,67.02
2018-12-18T10:15:05.792Z,67.09
2018-12-18T10:17:31.928Z,67.32
2018-12-18T10:19:58.305Z,67.26
2018-12-18T10:22:24.528Z,66.78
2018-12-18T10:24:50.681Z,66.77
2018-12-18T10:27:16.845Z,67.37
2018-12-18T10:29:43.239Z,70.22
2018-12-18T10:32:09.637Z,70.00
2018-12-18T10:34:35.813Z,70.46
2018-12-18T10:37:02.128Z,70.96
2018-12-18T10:39:28.294Z,71.10
2018-12-18T10:41:54.553Z,70.46
2018-12-18T10:44:20.779Z,71.94
2018-12-18T10:46:47.012Z,72.05
2018-12-18T10:49:13.190Z,71.26
2018-12-18T10:51:39.349Z,70.46
2018-12-18T10:54:05.689Z,69.90
2018-12-18T10:56:31.950Z,68.09
2018-12-18T10:58:58.178Z,67.84
2018-12-18T11:01:30.285Z,67.19
2018-12-18T11:03:56.542Z,66.40
2018-12-18T11:06:22.684Z,66.70
2018-12-18T11:08:48.809Z,65.94
2018-12-18T11:11:14.994Z,65.38
2018-12-18T11:13:41.246Z,65.21
2018-12-18T11:16:07.507Z,64.96
2018-12-18T11:18:33.743Z,66.22
2018-12-18T11:20:59.881Z,66.53
2018-12-18T11:23:26.171Z,66.87
2018-12-18T11:25:52.356Z,69.42
2018-12-18T11:28:18.617Z,69.86
2018-12-18T11:30:44.841Z,70.27
2018-12-18T11:33:11.029Z,70.28
2018-12-18T11:35:37.328Z,69.38
2018-12-18T11:38:03.500Z,67.07
2018-12-18T11:40:29.925Z,66.71
2018-12-18T11:42:57.009Z,68.71
2018-12-18T11:45:23.845Z,70.38
2018-12-18T11:47:50.041Z,69.23
2018-12-18T11:50:16.334Z,69.70
2018-12-18T11:52:42.491Z,68.38
2018-12-18T11:55:08.994Z,67.40
2018-12-18T11:57:35.189Z,67.85
2018-12-18T12:00:01.472Z,69.05
2018-12-18T12:02:27.660Z,69.20
2018-12-18T12:04:53.834Z,68.36
2018-12-18T12:07:19.985Z,68.37
2018-12-18T12:09:46.137Z,69.19
2018-12-18T12:12:12.386Z,69.47
2018-12-18T12:14:38.774Z,68.56
2018-12-18T12:17:04.978Z,68.33
2018-12-18T12:19:31.162Z,69.30
2018-12-18T12:21:57.466Z,70.47
2018-12-18T12:24:23.725Z,69.30
2018-12-18T12:26:52.105Z,68.80
2018-12-18T12:29:25.398Z,67.87
2018-12-18T12:31:51.626Z,69.37
2018-12-18T12:34:17.768Z,69.05
2018-12-18T12:36:44.052Z,71.19
2018-12-18T12:39:10.276Z,70.38
2018-12-18T12:41:36.508Z,69.75
2018-12-18T12:44:02.702Z,69.19
2018-12-18T12:46:28.964Z,68.45
2018-12-18T12:48:55.222Z,67.61
2018-12-18T12:51:21.406Z,67.35
2018-12-18T12:53:47.641Z,67.33
2018-12-18T12:56:13.870Z,67.75
2018-12-18T12:58:40.094Z,67.56
2018-12-18T13:01:06.244Z,67.13
2018-12-18T13:03:32.407Z,67.99
2018-12-18T13:05:58.815Z,69.05
2018-12-18T13:08:24.954Z,68.25
2018-12-18T13:10:51.096Z,68.87
2018-12-18T13:13:17.257Z,68.80
2018-12-18T13:15:43.382Z,68.95
2018-12-18T13:18:09.528Z,69.83
2018-12-18T13:20:35.689Z,70.87
2018-12-18T13:23:01.830Z,70.24
2018-12-18T13:25:27.969Z,70.12
2018-12-18T13:27:54.453Z,70.43
2018-12-18T13:30:20.651Z,70.26
2018-12-18T13:32:46.880Z,72.33
2018-12-18T13:35:13.136Z,71.31
2018-12-18T13:37:39.297Z,71.19
2018-12-18T13:40:05.592Z,71.61
2018-12-18T13:42:31.774Z,71.65
2018-12-18T13:44:57.934Z,72.12
2018-12-18T13:47:27.164Z,72.47
2018-12-18T13:49:52.481Z,71.19
2018-12-18T13:52:18.629Z,71.01
2018-12-18T13:54:44.777Z,71.24
2018-12-18T13:57:10.980Z,71.14
2018-12-18T13:59:44.079Z,71.15
2018-12-18T14:02:10.238Z,71.43
2018-12-18T14:04:36.675Z,71.83
2018-12-18T14:07:02.873Z,71.60
2018-12-18T14:09:29.045Z,71.81
2018-12-18T14:11:55.324Z,72.21
2018-12-18T14:14:21.586Z,71.69
2018-12-18T14:16:47.814Z,71.58
2018-12-18T14:19:14.042Z,72.12
2018-12-18T14:21:40.213Z,72.39
2018-12-18T14:24:06.466Z,72.69
2018-12-18T14:26:32.726Z,73.08
2018-12-18T14:28:59.125Z,73.84
2018-12-18T14:31:25.328Z,73.39
2018-12-18T14:33:51.615Z,72.96
2018-12-18T14:36:17.813Z,73.12
2018-12-18T14:38:44.073Z,73.86
2018-12-18T14:41:10.265Z,73.05
2018-12-18T14:43:36.445Z,74.29
2018-12-18T14:46:02.642Z,74.22
2018-12-18T14:48:28.980Z,74.74
2018-12-18T14:50:55.173Z,74.64
2018-12-18T14:53:28.338Z,75.31
2018-12-18T14:55:54.594Z,76.30
2018-12-18T14:58:20.821Z,75.75
2018-12-18T15:00:47.086Z,76.56
2018-12-18T15:03:13.486Z,76.02
2018-12-18T15:05:39.744Z,76.24
2018-12-18T15:08:05.972Z,76.59
2018-12-18T15:10:32.149Z,76.44
2018-12-18T15:12:58.325Z,76.65
2018-12-18T15:15:24.465Z,76.04
2018-12-18T15:17:50.654Z,75.28
2018-12-18T15:20:16.876Z,75.17
2018-12-18T15:22:50.096Z,75.41
2018-12-18T15:25:16.261Z,75.12
2018-12-18T15:27:42.406Z,75.46
2018-12-18T15:30:08.753Z,75.00
2018-12-18T15:32:34.941Z,75.82
2018-12-18T15:35:01.208Z,75.09
2018-12-18T15:37:27.362Z,75.23
2018-12-18T15:39:53.662Z,74.64
2018-12-18T15:42:20.094Z,74.26
2018-12-18T15:44:46.318Z,75.42
2018-12-18T15:47:12.488Z,75.08
2018-12-18T15:49:45.505Z,75.47
2018-12-18T15:52:11.793Z,75.92
2018-12-18T15:54:37.964Z,75.55
2018-12-18T15:57:04.113Z,74.52
2018-12-18T15:59:30.478Z,75.35
2018-12-18T16:01:56.626Z,75.25
2018-12-18T16:04:22.931Z,75.02
2018-12-18T16:06:49.179Z,75.59
2018-12-18T16:09:15.358Z,75.83
2018-12-18T16:14:34.438Z,75.92
2018-12-18T16:17:00.700Z,75.70
2018-12-18T16:19:27.541Z,76.12
2018-12-18T16:21:54.136Z,76.03
2018-12-18T16:24:20.401Z,76.01
2018-12-18T16:26:46.638Z,75.91
2018-12-18T16:29:12.809Z,75.58
2018-12-18T16:31:39.222Z,75.25
2018-12-18T16:34:05.519Z,75.19
2018-12-18T16:36:31.667Z,75.84
2018-12-18T16:38:57.949Z,75.48
2018-12-18T16:41:24.160Z,75.25
2018-12-18T16:43:50.451Z,75.60
2018-12-18T16:46:16.658Z,75.19
2018-12-18T16:48:42.885Z,76.02
2018-12-18T16:51:09.036Z,75.98
2018-12-18T16:53:35.312Z,75.44
2018-12-18T16:56:01.542Z,75.03
2018-12-18T16:58:27.772Z,74.77
2018-12-18T17:00:54.024Z,74.89
2018-12-18T17:03:20.252Z,74.34
2018-12-18T17:05:46.406Z,74.53
2018-12-18T17:08:12.707Z,74.32
2018-12-18T17:10:38.858Z,74.75
2018-12-18T17:13:05.133Z,74.58
2018-12-18T17:15:31.395Z,74.51
2018-12-18T17:17:57.537Z,74.31
2018-12-18T17:20:23.813Z,74.58
2018-12-18T17:22:50.074Z,73.93
2018-12-18T17:25:16.284Z,74.42
2018-12-18T17:27:42.517Z,74.75
2018-12-18T17:30:08.929Z,75.01
2018-12-18T17:32:35.600Z,74.97
2018-12-18T17:35:01.828Z,74.54
2018-12-18T17:37:28.230Z,75.03
2018-12-18T17:39:54.437Z,74.71
2018-12-18T17:42:20.693Z,74.94
2018-12-18T17:44:46.874Z,74.78
2018-12-18T17:47:13.029Z,73.53
2018-12-18T17:49:39.186Z,73.86
2018-12-18T17:52:05.628Z,73.75
2018-12-18T17:54:31.858Z,73.88
2018-12-18T17:56:58.017Z,73.98
2018-12-18T17:59:24.177Z,73.46
2018-12-18T18:01:50.329Z,74.19
2018-12-18T18:04:16.490Z,74.26
2018-12-18T18:06:42.653Z,75.06
2018-12-18T18:09:09.100Z,74.41
2018-12-18T18:11:35.389Z,75.18
2018-12-18T18:14:01.597Z,74.05
2018-12-18T18:16:27.904Z,73.77
2018-12-18T18:18:54.130Z,75.18
2018-12-18T18:21:20.301Z,74.59
2018-12-18T18:23:46.458Z,74.19
2018-12-18T18:26:14.223Z,73.69
2018-12-18T18:28:40.462Z,73.00
2018-12-18T18:31:06.617Z,74.45
2018-12-18T18:33:32.896Z,74.76
2018-12-18T18:35:59.369Z,74.76
2018-12-18T18:38:25.600Z,75.04
2018-12-18T18:40:52.028Z,74.49
2018-12-18T18:43:18.265Z,74.13
2018-12-18T18:45:44.435Z,74.60
2018-12-18T18:48:10.609Z,74.67
2018-12-18T18:50:36.912Z,74.70
2018-12-18T18:53:03.089Z,75.40
2018-12-18T18:55:29.281Z,74.14
2018-12-18T18:57:55.503Z,73.83
2018-12-18T19:00:22.032Z,73.43
2018-12-18T19:02:48.556Z,73.92
2018-12-18T19:05:14.935Z,74.33
2018-12-18T19:07:41.424Z,73.75
2018-12-18T19:10:08.418Z,73.62
2018-12-18T19:12:34.841Z,74.01
2018-12-18T19:15:01.339Z,74.38
2018-12-18T19:17:27.697Z,75.41
2018-12-18T19:19:54.105Z,74.39
2018-12-18T19:22:20.331Z,74.25
2018-12-18T19:24:46.498Z,74.23
2018-12-18T19:27:12.763Z,74.45
2018-12-18T19:29:38.923Z,73.50
2018-12-18T19:32:05.148Z,73.37
2018-12-18T19:34:31.353Z,72.89
2018-12-18T19:36:57.781Z,73.02
2018-12-18T19:39:24.092Z,74.10
2018-12-18T19:41:50.333Z,73.93
2018-12-18T19:44:16.518Z,74.11
2018-12-18T19:46:42.682Z,74.07
2018-12-18T19:49:08.899Z,73.31
2018-12-18T19:51:35.094Z,72.63
2018-12-18T19:54:01.277Z,73.05
2018-12-18T19:56:27.480Z,72.99
2018-12-18T19:58:53.649Z,72.62
2018-12-18T20:01:19.818Z,71.87
2018-12-18T20:03:46.056Z,72.35
2018-12-18T20:06:12.238Z,72.09
2018-12-18T20:08:38.408Z,71.60
2018-12-18T20:11:04.641Z,72.33
2018-12-18T20:13:31.157Z,73.49
2018-12-18T20:15:57.526Z,72.78
2018-12-18T20:18:23.768Z,72.39
2018-12-18T20:20:50.077Z,73.25
2018-12-18T20:23:16.256Z,72.98
2018-12-18T20:25:42.724Z,74.17
2018-12-18T20:28:08.941Z,72.93
2018-12-18T20:30:35.256Z,73.76
2018-12-18T20:33:01.476Z,73.14
2018-12-18T20:35:27.777Z,73.35
2018-12-18T20:37:53.954Z,72.24
2018-12-18T20:40:20.161Z,73.04
2018-12-18T20:42:46.372Z,73.82
2018-12-18T20:45:12.520Z,73.64
2018-12-18T20:47:38.724Z,73.60
2018-12-18T20:50:05.646Z,72.93
2018-12-18T20:52:31.819Z,72.86
2018-12-18T20:54:58.005Z,72.71
2018-12-18T20:57:24.176Z,72.75
2018-12-18T20:59:50.333Z,73.31
2018-12-18T21:02:16.510Z,72.00
2018-12-18T21:04:42.668Z,72.46
2018-12-18T21:07:08.797Z,72.00
2018-12-18T21:09:35.009Z,71.96
2018-12-18T21:12:01.177Z,71.40
2018-12-18T21:14:27.344Z,71.06
2018-12-18T21:16:53.518Z,70.47
2018-12-18T21:19:19.653Z,72.11
2018-12-18T21:21:45.809Z,72.14
2018-12-18T21:24:11.996Z,71.65
2018-12-18T21:26:38.148Z,71.27
2018-12-18T21:29:04.301Z,71.75
2018-12-18T21:31:30.483Z,70.68
2018-12-18T21:33:56.630Z,70.59
2018-12-18T21:36:22.789Z,70.69
2018-12-18T21:38:49.003Z,70.93
2018-12-18T21:41:15.127Z,70.39
2018-12-18T21:43:41.281Z,70.67
2018-12-18T21:46:07.520Z,71.13
2018-12-18T21:48:33.689Z,70.57
2018-12-18T21:50:59.874Z,70.96
2018-12-18T21:53:26.085Z,72.02
2018-12-18T21:55:52.284Z,71.61
2018-12-18T21:58:18.472Z,71.74
2018-12-18T22:00:44.688Z,71.95
2018-12-18T22:03:10.851Z,71.13
2018-12-18T22:05:37.004Z,71.08
2018-12-18T22:08:03.345Z,71.90
2018-12-18T22:10:29.510Z,71.66
2018-12-18T22:12:55.665Z,71.45
2018-12-18T22:15:21.842Z,71.37
2018-12-18T22:17:47.994Z,71.74
2018-12-18T22:20:14.128Z,71.19
2018-12-18T22:22:40.294Z,71.33
2018-12-18T22:25:06.448Z,72.45
2018-12-18T22:27:32.603Z,72.54
2018-12-18T22:29:58.778Z,72.60
2018-12-18T22:32:24.923Z,72.73
2018-12-18T22:34:51.077Z,73.18
2018-12-18T22:37:17.248Z,73.07
2018-12-18T22:39:43.427Z,72.72
2018-12-18T22:42:09.600Z,72.98
2018-12-18T22:44:35.811Z,73.02
2018-12-18T22:47:01.953Z,73.15
2018-12-18T22:49:28.089Z,73.10
2018-12-18T22:51:54.258Z,73.17
2018-12-18T22:54:20.423Z,72.92
2018-12-18T22:56:46.561Z,73.04
2018-12-18T22:59:12.753Z,73.68
2018-12-18T23:01:44.071Z,73.27
2018-12-18T23:04:10.294Z,73.09
2018-12-18T23:06:36.513Z,72.74
2018-12-18T23:09:05.371Z,72.89
2018-12-18T23:11:31.778Z,72.56
2018-12-18T23:13:57.979Z,72.53
2018-12-18T23:16:24.165Z,72.57
2018-12-18T23:18:50.335Z,73.54
2018-12-18T23:21:16.539Z,73.71
2018-12-18T23:23:42.709Z,73.39
2018-12-18T23:26:08.879Z,73.14
2018-12-18T23:28:35.097Z,72.89
2018-12-18T23:31:01.300Z,72.73
2018-12-18T23:33:27.496Z,72.82
2018-12-18T23:35:53.697Z,72.98
2018-12-18T23:38:19.891Z,72.43
2018-12-18T23:40:46.070Z,72.36
2018-12-18T23:43:12.290Z,73.14
2018-12-18T23:45:38.508Z,73.25
2018-12-18T23:48:04.694Z,73.57
2018-12-18T23:50:30.904Z,73.97
2018-12-18T23:52:57.081Z,73.16
2018-12-18T23:55:23.261Z,73.82
2018-12-18T23:57:49.451Z,73.23
